createdAt,value
2019-04-23T00:02:26.538Z,15.90
2019-04-23T00:04:53.041Z,15.90
2019-04-23T00:07:40.077Z,15.90
2019-04-23T00:10:09.583Z,15.80
2019-04-23T00:12:38.079Z,15.70
2019-04-23T00:17:38.891Z,15.60
2019-04-23T00:20:10.044Z,15.60
2019-04-23T00:22:36.648Z,15.60
2019-04-23T00:27:50.362Z,15.60
2019-04-23T00:30:26.605Z,15.50
2019-04-23T00:33:01.520Z,15.40
2019-04-23T00:35:25.877Z,15.50
2019-04-23T00:38:06.530Z,15.40
2019-04-23T00:40:37.536Z,15.40
2019-04-23T00:43:02.062Z,15.50
2019-04-23T00:45:41.767Z,15.40
2019-04-23T00:48:02.312Z,15.30
2019-04-23T00:50:45.601Z,15.30
2019-04-23T00:53:12.699Z,15.30
2019-04-23T00:55:46.589Z,15.30
2019-04-23T01:03:17.510Z,15.20
2019-04-23T01:05:47.379Z,15.10
2019-04-23T01:08:18.478Z,15.10
2019-04-23T01:10:57.211Z,15.20
2019-04-23T01:15:59.685Z,15.00
2019-04-23T01:18:46.819Z,15.00
2019-04-23T01:20:54.710Z,15.00
2019-04-23T01:23:51.326Z,15.00
2019-04-23T01:26:35.543Z,14.90
2019-04-23T01:29:12.595Z,14.90
2019-04-23T01:31:46.055Z,14.90
2019-04-23T01:34:21.547Z,14.90
2019-04-23T01:36:48.672Z,14.80
2019-04-23T01:39:15.779Z,14.80
2019-04-23T01:44:24.001Z,14.60
2019-04-23T01:46:56.165Z,14.50
2019-04-23T01:49:30.905Z,14.50
2019-04-23T01:54:30.528Z,14.40
2019-04-23T01:57:04.047Z,14.40
2019-04-23T01:59:31.624Z,14.40
2019-04-23T02:02:08.274Z,14.30
2019-04-23T02:04:36.634Z,14.30
2019-04-23T02:07:06.236Z,14.30
2019-04-23T02:09:41.954Z,14.30
2019-04-23T02:12:11.081Z,14.30
2019-04-23T02:14:41.746Z,14.30
2019-04-23T02:17:29.830Z,14.20
2019-04-23T02:19:49.293Z,14.20
2019-04-23T02:22:25.315Z,14.20
2019-04-23T02:24:54.585Z,14.10
2019-04-23T02:27:29.709Z,14.10
2019-04-23T02:30:06.036Z,14.10
2019-04-23T02:32:29.718Z,14.20
2019-04-23T02:37:46.038Z,14.00
2019-04-23T02:40:17.586Z,14.00
2019-04-23T02:42:49.631Z,13.90
2019-04-23T02:45:09.601Z,13.80
2019-04-23T02:48:05.531Z,13.80
2019-04-23T02:50:36.755Z,13.80
2019-04-23T02:52:48.264Z,13.70
2019-04-23T02:55:17.722Z,13.60
2019-04-23T02:57:41.532Z,13.70
2019-04-23T03:02:49.869Z,13.60
2019-04-23T03:05:19.835Z,13.50
2019-04-23T03:08:02.202Z,13.50
2019-04-23T03:10:22.126Z,13.50
2019-04-23T03:18:39.237Z,13.30
2019-04-23T03:23:54.905Z,13.20
2019-04-23T03:26:27.204Z,13.10
2019-04-23T03:28:57.830Z,13.00
2019-04-23T03:34:01.062Z,13.10
2019-04-23T03:41:39.285Z,12.90
2019-04-23T03:43:46.813Z,12.90
2019-04-23T03:48:53.204Z,12.90
2019-04-23T03:56:44.712Z,12.90
2019-04-23T04:01:38.411Z,12.80
2019-04-23T04:06:45.453Z,12.70
2019-04-23T04:11:29.179Z,12.60
2019-04-23T04:14:20.757Z,12.60
2019-04-23T04:16:51.673Z,12.60
2019-04-23T04:19:26.359Z,12.50
2019-04-23T04:21:51.993Z,12.50
2019-04-23T04:24:36.954Z,12.50
2019-04-23T04:27:00.110Z,12.50
2019-04-23T04:29:35.096Z,12.50
2019-04-23T04:31:52.224Z,12.50
2019-04-23T04:37:27.163Z,12.60
2019-04-23T04:39:27.562Z,12.50
2019-04-23T04:44:43.366Z,12.50
2019-04-23T04:46:59.703Z,12.50
2019-04-23T04:49:42.576Z,12.50
2019-04-23T04:54:44.545Z,12.50
2019-04-23T04:57:10.279Z,12.40
2019-04-23T04:59:50.819Z,12.40
2019-04-23T05:04:52.542Z,12.40
2019-04-23T05:07:18.967Z,12.40
2019-04-23T05:12:19.184Z,12.40
2019-04-23T05:17:42.163Z,12.40
2019-04-23T05:20:05.778Z,12.40
2019-04-23T05:22:45.011Z,12.50
2019-04-23T05:24:58.600Z,12.40
2019-04-23T05:27:46.347Z,12.30
2019-04-23T05:30:15.247Z,12.30
2019-04-23T05:32:43.148Z,12.30
2019-04-23T05:35:15.114Z,12.30
2019-04-23T05:37:59.419Z,12.30
2019-04-23T05:40:25.359Z,12.20
2019-04-23T05:42:47.332Z,12.20
2019-04-23T05:45:16.932Z,12.30
2019-04-23T05:47:55.458Z,12.30
2019-04-23T05:50:26.035Z,12.40
2019-04-23T05:52:54.406Z,12.40
2019-04-23T05:55:20.089Z,12.40
2019-04-23T05:57:53.643Z,12.50
2019-04-23T06:00:28.107Z,12.50
2019-04-23T06:02:57.225Z,12.50
2019-04-23T06:05:30.580Z,12.40
2019-04-23T06:07:54.643Z,12.50
2019-04-23T06:10:34.321Z,12.50
2019-04-23T06:12:59.508Z,12.60
2019-04-23T06:15:34.548Z,12.60
2019-04-23T06:18:08.076Z,12.70
2019-04-23T06:20:45.393Z,12.80
2019-04-23T06:23:18.093Z,12.70
2019-04-23T06:28:12.761Z,12.90
2019-04-23T06:30:50.433Z,13.00
2019-04-23T06:33:22.267Z,13.00
2019-04-23T06:35:51.612Z,13.20
2019-04-23T06:40:51.935Z,13.30
2019-04-23T06:43:27.771Z,13.30
2019-04-23T06:45:53.159Z,13.40
2019-04-23T06:48:27.666Z,13.40
2019-04-23T06:51:09.322Z,13.50
2019-04-23T06:53:27.116Z,13.50
2019-04-23T06:56:06.715Z,13.60
2019-04-23T07:01:05.275Z,13.60
2019-04-23T07:16:14.692Z,13.90
2019-04-23T07:18:48.914Z,13.90
2019-04-23T07:26:30.451Z,14.00
2019-04-23T07:28:56.135Z,14.10
2019-04-23T07:31:44.636Z,14.10
2019-04-23T07:36:35.581Z,14.30
2019-04-23T07:39:16.048Z,14.40
2019-04-23T07:41:55.982Z,14.40
2019-04-23T07:44:36.849Z,14.40
2019-04-23T07:47:11.688Z,14.50
2019-04-23T07:49:34.207Z,14.60
2019-04-23T07:52:10.980Z,14.60
2019-04-23T07:54:42.448Z,14.70
2019-04-23T07:57:21.844Z,14.70
2019-04-23T07:59:43.930Z,14.80
2019-04-23T08:02:14.134Z,14.80
2019-04-23T08:04:53.055Z,14.90
2019-04-23T08:07:15.004Z,15.00
2019-04-23T08:09:48.579Z,15.00
2019-04-23T08:12:19.392Z,15.10
2019-04-23T08:14:46.912Z,15.10
2019-04-23T08:17:21.009Z,15.10
2019-04-23T08:22:33.446Z,15.30
2019-04-23T08:27:28.179Z,15.40
2019-04-23T08:29:55.728Z,15.40
2019-04-23T08:32:21.483Z,15.50
2019-04-23T08:35:01.256Z,15.50
2019-04-23T08:37:49.706Z,15.50
2019-04-23T08:40:09.850Z,15.60
2019-04-23T08:42:46.776Z,15.60
2019-04-23T08:45:28.002Z,15.70
2019-04-23T08:48:09.276Z,15.70
2019-04-23T08:53:24.752Z,15.90
2019-04-23T08:55:46.350Z,16.00
2019-04-23T08:58:14.420Z,16.00
2019-04-23T09:03:33.307Z,16.20
2019-04-23T09:08:20.328Z,16.40
2019-04-23T09:10:56.261Z,16.50
2019-04-23T09:13:49.911Z,16.60
2019-04-23T09:15:55.485Z,16.70
2019-04-23T09:18:27.856Z,16.70
2019-04-23T09:20:59.715Z,16.80
2019-04-23T09:23:34.417Z,16.70
2019-04-23T09:25:57.650Z,16.70
2019-04-23T09:28:42.149Z,16.80
2019-04-23T09:31:11.536Z,16.70
2019-04-23T09:33:52.137Z,16.90
2019-04-23T09:36:45.245Z,17.00
2019-04-23T09:39:12.821Z,17.20
2019-04-23T09:41:38.202Z,17.40
2019-04-23T09:44:42.631Z,17.60
2019-04-23T09:47:06.857Z,17.70
2019-04-23T09:49:33.242Z,17.90
2019-04-23T09:52:07.226Z,18.00
2019-04-23T09:54:40.237Z,18.20
2019-04-23T09:57:06.148Z,18.40
2019-04-23T10:02:04.244Z,18.80
2019-04-23T10:04:28.222Z,18.90
2019-04-23T10:07:01.669Z,19.00
2019-04-23T10:09:18.428Z,19.10
2019-04-23T10:11:49.307Z,19.20
2019-04-23T10:14:18.866Z,19.10
2019-04-23T10:16:49.373Z,19.10
2019-04-23T10:19:19.311Z,19.00
2019-04-23T10:21:49.186Z,19.10
2019-04-23T10:24:19.292Z,19.20
2019-04-23T10:26:50.365Z,19.30
2019-04-23T10:29:23.601Z,19.60
2019-04-23T10:31:53.845Z,19.70
2019-04-23T10:34:25.208Z,19.80
2019-04-23T10:36:55.635Z,19.90
2019-04-23T10:39:30.362Z,20.20
2019-04-23T10:41:57.656Z,20.30
2019-04-23T10:44:32.738Z,20.50
2019-04-23T10:47:45.335Z,20.90
2019-04-23T10:50:35.602Z,21.10
2019-04-23T10:53:10.217Z,21.40
2019-04-23T10:55:44.770Z,21.60
2019-04-23T10:58:08.427Z,21.80
2019-04-23T11:00:36.090Z,22.00
2019-04-23T11:03:20.615Z,22.20
2019-04-23T11:05:52.199Z,22.50
2019-04-23T11:08:13.176Z,22.60
2019-04-23T11:10:45.513Z,22.70
2019-04-23T11:13:25.629Z,22.80
2019-04-23T11:18:24.118Z,22.50
2019-04-23T11:20:47.952Z,22.30
2019-04-23T11:23:29.186Z,22.40
2019-04-23T11:25:58.957Z,22.40
2019-04-23T11:28:36.273Z,22.60
2019-04-23T11:31:15.673Z,22.60
2019-04-23T11:33:46.358Z,22.80
2019-04-23T11:38:54.729Z,23.30
2019-04-23T11:41:22.623Z,23.20
2019-04-23T11:44:02.305Z,23.30
2019-04-23T11:46:32.537Z,23.10
2019-04-23T11:49:02.450Z,23.00
2019-04-23T11:56:35.495Z,23.10
2019-04-23T11:58:54.166Z,23.30
2019-04-23T12:01:49.900Z,23.50
2019-04-23T12:04:18.651Z,23.70
2019-04-23T12:06:50.236Z,23.90
2019-04-23T12:09:25.918Z,24.00
2019-04-23T12:12:08.116Z,24.10
2019-04-23T12:17:15.350Z,24.20
2019-04-23T12:22:16.445Z,24.30
2019-04-23T12:25:02.275Z,24.10
2019-04-23T12:27:27.549Z,23.60
2019-04-23T12:29:49.153Z,23.40
2019-04-23T12:35:04.264Z,23.10
2019-04-23T12:45:22.037Z,24.20
2019-04-23T12:47:49.192Z,24.40
2019-04-23T12:50:41.859Z,24.50
2019-04-23T12:52:40.636Z,24.40
2019-04-23T12:55:22.385Z,24.40
2019-04-23T12:58:03.268Z,24.70
2019-04-23T13:00:22.544Z,24.80
2019-04-23T13:03:02.791Z,24.80
2019-04-23T13:05:31.486Z,24.80
2019-04-23T13:08:00.565Z,24.80
2019-04-23T13:10:27.917Z,25.00
2019-04-23T13:13:01.322Z,24.90
2019-04-23T13:15:29.401Z,25.00
2019-04-23T13:20:33.582Z,25.00
2019-04-23T13:23:15.375Z,25.10
2019-04-23T13:28:28.069Z,24.80
2019-04-23T13:33:30.762Z,24.10
2019-04-23T13:38:28.544Z,24.40
2019-04-23T13:48:23.329Z,24.10
2019-04-23T13:56:06.237Z,23.70
2019-04-23T13:58:38.790Z,23.80
2019-04-23T14:03:40.582Z,23.50
2019-04-23T14:06:24.491Z,23.50
2019-04-23T14:21:25.217Z,23.60
2019-04-23T14:26:33.962Z,23.50
2019-04-23T14:28:57.046Z,23.40
2019-04-23T14:31:24.948Z,23.40
2019-04-23T14:34:04.945Z,23.50
2019-04-23T14:39:18.786Z,22.90
2019-04-23T14:41:27.173Z,22.80
2019-04-23T14:44:10.413Z,22.80
2019-04-23T14:49:25.913Z,22.80
2019-04-23T14:51:47.479Z,22.90
2019-04-23T14:54:35.871Z,23.00
2019-04-23T14:57:03.180Z,23.00
2019-04-23T14:59:13.589Z,22.80
2019-04-23T15:04:36.028Z,22.80
2019-04-23T15:07:07.550Z,22.80
2019-04-23T15:14:46.513Z,22.60
2019-04-23T15:17:13.152Z,22.60
2019-04-23T15:22:30.714Z,22.70
2019-04-23T15:25:07.013Z,22.70
2019-04-23T15:29:47.581Z,22.80
2019-04-23T15:32:24.161Z,22.60
2019-04-23T15:37:41.527Z,22.40
2019-04-23T15:40:04.048Z,22.30
2019-04-23T15:45:00.973Z,22.10
2019-04-23T15:50:10.540Z,21.70
2019-04-23T15:52:47.981Z,21.60
2019-04-23T15:55:06.041Z,21.50
2019-04-23T15:58:00.910Z,21.50
2019-04-23T16:00:10.839Z,21.50
2019-04-23T16:02:14.132Z,21.50
2019-04-23T16:04:46.981Z,21.50
2019-04-23T16:07:39.367Z,21.30
2019-04-23T16:12:58.396Z,21.20
2019-04-23T16:15:21.970Z,21.20
2019-04-23T16:18:07.831Z,21.30
2019-04-23T16:20:40.486Z,21.30
2019-04-23T16:22:55.351Z,21.40
2019-04-23T16:25:32.419Z,21.30
2019-04-23T16:30:59.786Z,21.20
2019-04-23T16:35:51.702Z,21.10
2019-04-23T16:38:23.166Z,21.00
2019-04-23T16:41:00.687Z,20.90
2019-04-23T16:43:19.809Z,20.80
2019-04-23T16:45:57.798Z,20.60
2019-04-23T16:53:29.932Z,20.50
2019-04-23T16:56:04.216Z,20.40
2019-04-23T17:01:06.062Z,20.40
2019-04-23T17:06:08.584Z,20.40
2019-04-23T17:11:10.160Z,20.20
2019-04-23T17:13:40.196Z,20.10
2019-04-23T17:16:18.247Z,20.10
2019-04-23T17:18:41.707Z,20.10
2019-04-23T17:23:50.318Z,20.10
2019-04-23T17:26:20.535Z,20.00
2019-04-23T17:28:47.464Z,20.00
2019-04-23T17:31:35.629Z,19.90
2019-04-23T17:33:49.674Z,19.90
2019-04-23T17:42:01.451Z,19.60
2019-04-23T17:44:38.286Z,19.60
2019-04-23T17:47:02.710Z,19.60
2019-04-23T17:49:24.872Z,19.50
2019-04-23T17:51:56.067Z,19.60
2019-04-23T17:54:51.800Z,19.60
2019-04-23T18:00:08.327Z,19.40
2019-04-23T18:05:02.604Z,19.30
2019-04-23T18:07:46.451Z,19.20
2019-04-23T18:10:17.546Z,19.30
2019-04-23T18:17:35.448Z,19.10
2019-04-23T18:20:13.053Z,19.00
2019-04-23T18:22:46.897Z,18.90
2019-04-23T18:25:32.375Z,18.90
2019-04-23T18:27:50.933Z,18.70
2019-04-23T18:30:44.642Z,18.70
2019-04-23T18:33:49.088Z,18.60
2019-04-23T18:35:43.941Z,18.40
2019-04-23T18:38:29.024Z,18.30
2019-04-23T18:43:37.121Z,18.10
2019-04-23T18:56:11.376Z,17.80
2019-04-23T18:58:52.520Z,17.70
2019-04-23T19:01:27.907Z,17.70
2019-04-23T19:04:00.366Z,17.70
2019-04-23T19:09:13.904Z,17.60
2019-04-23T19:11:53.145Z,17.50
2019-04-23T19:14:19.957Z,17.50
2019-04-23T19:19:28.577Z,17.40
2019-04-23T19:22:14.356Z,17.40
2019-04-23T19:24:28.633Z,17.30
2019-04-23T19:29:35.985Z,17.30
2019-04-23T19:31:56.793Z,17.20
2019-04-23T19:34:46.906Z,17.20
2019-04-23T19:37:02.671Z,17.20
2019-04-23T19:39:48.483Z,17.20
2019-04-23T19:42:17.976Z,17.20
2019-04-23T19:44:45.597Z,17.20
2019-04-23T19:49:41.811Z,17.10
2019-04-23T19:52:18.756Z,17.00
2019-04-23T19:54:56.666Z,16.90
2019-04-23T19:57:19.376Z,16.80
2019-04-23T19:59:50.581Z,16.80
2019-04-23T20:02:38.606Z,16.70
2019-04-23T20:09:51.686Z,16.80
2019-04-23T20:12:29.344Z,16.70
2019-04-23T20:14:58.240Z,16.80
2019-04-23T20:17:37.766Z,16.80
2019-04-23T20:20:02.925Z,16.80
2019-04-23T20:22:41.814Z,16.70
2019-04-23T20:25:20.890Z,16.60
2019-04-23T20:27:45.227Z,16.60
2019-04-23T20:35:35.233Z,16.60
2019-04-23T20:40:43.194Z,16.60
2019-04-23T20:43:07.645Z,16.50
2019-04-23T20:48:32.509Z,16.50
2019-04-23T20:50:44.418Z,16.40
2019-04-23T20:53:15.773Z,16.50
2019-04-23T20:56:01.481Z,16.60
2019-04-23T20:58:26.442Z,16.70
2019-04-23T21:01:06.910Z,16.80
2019-04-23T21:06:09.834Z,16.90
2019-04-23T21:11:05.396Z,16.90
2019-04-23T21:16:13.104Z,16.90
2019-04-23T21:18:44.329Z,17.00
2019-04-23T21:21:18.169Z,17.00
2019-04-23T21:23:50.767Z,17.00
2019-04-23T21:26:08.323Z,17.00
2019-04-23T21:28:47.503Z,16.90
2019-04-23T21:31:19.488Z,16.90
2019-04-23T21:34:06.004Z,16.80
2019-04-23T21:40:28.611Z,16.80
2019-04-23T21:44:11.937Z,16.70
2019-04-23T21:46:54.152Z,16.60
2019-04-23T21:49:25.252Z,16.50
2019-04-23T21:51:49.314Z,16.50
2019-04-23T21:54:15.199Z,16.40
2019-04-23T21:59:17.575Z,16.40
2019-04-23T22:02:13.420Z,16.40
2019-04-23T22:04:35.736Z,16.40
2019-04-23T22:09:39.017Z,16.30
2019-04-23T22:14:40.004Z,16.10
2019-04-23T22:17:10.005Z,16.10
2019-04-23T22:19:42.164Z,16.00
2019-04-23T22:22:12.960Z,15.90
2019-04-23T22:27:11.750Z,15.80
2019-04-23T22:29:44.809Z,15.80
2019-04-23T22:32:12.289Z,15.70
2019-04-23T22:34:55.666Z,15.70
2019-04-23T22:39:52.433Z,15.70
2019-04-23T22:42:41.216Z,15.70
2019-04-23T22:45:40.613Z,15.80
2019-04-23T22:47:28.200Z,15.90
2019-04-23T22:50:02.556Z,15.90
2019-04-23T22:52:48.515Z,16.00
2019-04-23T22:55:07.953Z,16.00
2019-04-23T22:57:55.996Z,15.90
2019-04-23T23:00:13.488Z,15.90
2019-04-23T23:02:58.299Z,15.90
2019-04-23T23:06:09.212Z,15.80
2019-04-23T23:08:13.443Z,15.80
2019-04-23T23:10:51.956Z,15.70
2019-04-23T23:13:20.663Z,15.70
2019-04-23T23:15:53.350Z,15.70
2019-04-23T23:23:21.518Z,15.70
2019-04-23T23:26:02.855Z,15.70
2019-04-23T23:33:35.820Z,15.60
2019-04-23T23:36:05.854Z,15.50
2019-04-23T23:38:41.587Z,15.40
2019-04-23T23:43:41.788Z,15.40
2019-04-23T23:46:27.698Z,15.40
2019-04-23T23:48:42.329Z,15.20
2019-04-23T23:54:02.275Z,15.20
2019-04-23T23:56:14.300Z,15.20
